Terminal Aerodrome Forecast
Issued by NWS

Home | Current Version | Previous Version | Graphics & Text | Print | Product List | Glossary On
Versions: 1 2 3 4 5 6 7 8 9 10 11 12 13 14 15 16 17 18 19 20 21 22 23 24 25 26 27 28 29 30
000
FTUS43 KLOT 250259 AAA
TAFDPA
TAF AMD
KDPA 250259Z 2503/2524 05013KT P6SM VCSH OVC080
     FM250500 03013KT 5SM -SHRA FEW006 BKN016 OVC050
     FM250900 04013G18KT 2SM -SHRA BR BKN005 OVC012
      TEMPO 2513/2517 1SM -DZ BR OVC003
     FM251800 05012G20KT 3SM -SHRA BR OVC007=

USA.gov is the U.S. government's official web portal to all federal, state and local government web resources and services.